Time;durP1;ratioP1;P1;durP2;ratioP2;P2;SDS_P1;SDS_P2;PMS_P1;PMS_P2;Temp;Humidity;BMP_temperature;BMP_pressure;BME280_temperature;BME280_humidity;BME280_pressure;Samples;Min_cycle;Max_cycle;Signal;HPM_P1;HPM_P2
2023/07/05 00:00:57;;;;;;;3.60;3.40;;;;;;;;;;5055721;28;20683;-63
2023/07/05 00:03:25;;;;;;;4.63;3.70;;;;;;;;;;5055151;28;20913;-66
2023/07/05 00:05:53;;;;;;;4.17;3.80;;;;;;;;;;5055528;28;20690;-65
2023/07/05 00:08:24;;;;;;;5.33;3.47;;;;;;;;;;5055138;28;20633;-66
2023/07/05 00:11:05;;;;;;;5.03;2.80;;;;;;;;;;5049731;28;20674;-65
2023/07/05 00:13:33;;;;;;;4.00;3.70;;;;;;;;;;5055470;28;21034;-65
2023/07/05 00:16:01;;;;;;;3.07;2.87;;;;;;;;;;5056248;28;20692;-65
2023/07/05 00:18:29;;;;;;;6.00;3.17;;;;;;;;;;5055543;28;20627;-64
2023/07/05 00:21:00;;;;;;;5.23;2.90;;;;;;;;;;5054947;28;20626;-62
2023/07/05 00:23:28;;;;;;;2.97;2.67;;;;;;;;;;5057093;28;21134;-62
2023/07/05 00:25:57;;;;;;;2.83;2.60;;;;;;;;;;5055039;28;20687;-62
2023/07/05 00:28:26;;;;;;;5.50;2.97;;;;;;;;;;5057800;28;21056;-62
2023/07/05 00:30:55;;;;;;;3.00;2.43;;;;;;;;;;5057002;28;20722;-65
2023/07/05 00:33:23;;;;;;;2.40;2.30;;;;;;;;;;5045284;28;20719;-62
2023/07/05 00:35:52;;;;;;;3.50;3.20;;;;;;;;;;5056074;28;21240;-63
2023/07/05 00:38:21;;;;;;;3.23;3.03;;;;;;;;;;5050035;28;20717;-62
2023/07/05 00:40:51;;;;;;;5.03;2.97;;;;;;;;;;5055283;28;20633;-62
2023/07/05 00:43:19;;;;;;;3.03;2.83;;;;;;;;;;5056212;28;20633;-63
2023/07/05 00:45:56;;;;;;;3.10;2.80;;;;;;;;;;5056592;28;21006;-63
2023/07/05 00:48:27;;;;;;;4.30;2.60;;;;;;;;;;5052453;28;20702;-64
2023/07/05 00:51:17;;;;;;;3.80;3.50;;;;;;;;;;5052024;28;20652;-64
2023/07/05 00:53:45;;;;;;;3.00;2.80;;;;;;;;;;5056206;28;20670;-64
2023/07/05 00:56:19;;;;;;;4.03;2.97;;;;;;;;;;5057528;28;20657;-62
2023/07/05 00:58:47;;;;;;;3.70;3.30;;;;;;;;;;5057936;28;20711;-63
2023/07/05 01:01:17;;;;;;;3.53;2.73;;;;;;;;;;5045547;28;20638;-65
2023/07/05 01:03:50;;;;;;;3.37;3.07;;;;;;;;;;5054622;28;20606;-65
2023/07/05 01:06:21;;;;;;;5.47;3.47;;;;;;;;;;5054136;28;21181;-65
2023/07/05 01:08:50;;;;;;;5.30;2.87;;;;;;;;;;5054825;28;20650;-66
2023/07/05 01:11:21;;;;;;;5.20;2.27;;;;;;;;;;5058066;28;20737;-66
2023/07/05 01:13:54;;;;;;;7.40;3.07;;;;;;;;;;5075686;28;20583;-65
2023/07/05 01:16:28;;;;;;;3.70;3.40;;;;;;;;;;5074755;28;20566;-64
2023/07/05 01:19:01;;;;;;;3.13;2.83;;;;;;;;;;5075162;28;20576;-65
2023/07/05 01:21:32;;;;;;;4.03;2.80;;;;;;;;;;5074964;28;20607;-63
2023/07/05 01:24:28;;;;;;;2.93;2.73;;;;;;;;;;5066495;28;20662;-65
2023/07/05 01:27:18;;;;;;;2.77;2.57;;;;;;;;;;5052102;28;20656;-63
2023/07/05 01:30:03;;;;;;;3.50;2.90;;;;;;;;;;5071676;28;20657;-65
2023/07/05 01:32:36;;;;;;;2.60;2.40;;;;;;;;;;5074109;28;20618;-62
2023/07/05 01:35:06;;;;;;;4.00;2.80;;;;;;;;;;5074940;28;20602;-66
2023/07/05 01:37:35;;;;;;;2.17;2.07;;;;;;;;;;5074387;28;20590;-63
2023/07/05 01:40:12;;;;;;;2.97;2.60;;;;;;;;;;5074424;28;20635;-65
2023/07/05 01:42:41;;;;;;;2.43;2.30;;;;;;;;;;5075155;28;20585;-65
2023/07/05 01:45:10;;;;;;;7.43;2.33;;;;;;;;;;5074698;28;20642;-66
2023/07/05 01:47:42;;;;;;;2.53;2.33;;;;;;;;;;5074755;28;20652;-64
2023/07/05 01:50:16;;;;;;;2.37;2.17;;;;;;;;;;5054489;28;20576;-63
2023/07/05 01:52:47;;;;;;;4.80;2.37;;;;;;;;;;5054406;28;20604;-67
2023/07/05 01:55:19;;;;;;;3.53;2.60;;;;;;;;;;5070955;28;20611;-63
2023/07/05 01:57:50;;;;;;;3.10;2.60;;;;;;;;;;5070112;28;20655;-63
2023/07/05 02:00:19;;;;;;;2.90;2.70;;;;;;;;;;5054580;28;20578;-64
2023/07/05 02:02:51;;;;;;;3.30;2.43;;;;;;;;;;5035639;28;20636;-63
2023/07/05 02:05:21;;;;;;;4.33;2.97;;;;;;;;;;5053425;28;20607;-66
2023/07/05 02:07:49;;;;;;;3.63;2.47;;;;;;;;;;5036776;28;20599;-65
2023/07/05 02:10:17;;;;;;;2.80;2.20;;;;;;;;;;5053298;28;20681;-65
2023/07/05 02:12:45;;;;;;;5.20;3.70;;;;;;;;;;5052618;28;20585;-63
2023/07/05 02:15:14;;;;;;;2.30;2.10;;;;;;;;;;5055064;28;20651;-66
2023/07/05 02:17:42;;;;;;;5.17;2.60;;;;;;;;;;5069538;28;20635;-63
2023/07/05 02:20:12;;;;;;;2.70;2.50;;;;;;;;;;5054467;28;20681;-63
2023/07/05 02:22:40;;;;;;;3.70;3.40;;;;;;;;;;5052657;28;20613;-64
2023/07/05 02:25:09;;;;;;;3.63;2.90;;;;;;;;;;5066929;28;20594;-63
2023/07/05 02:27:37;;;;;;;2.80;2.40;;;;;;;;;;5053140;28;20687;-63
2023/07/05 02:30:09;;;;;;;6.03;3.33;;;;;;;;;;5054079;28;20662;-65
2023/07/05 02:32:37;;;;;;;3.43;3.10;;;;;;;;;;5053164;28;20594;-66
2023/07/05 02:35:07;;;;;;;3.37;2.90;;;;;;;;;;5053901;28;20631;-65
2023/07/05 02:37:37;;;;;;;4.83;3.17;;;;;;;;;;5053324;28;20646;-65
2023/07/05 02:40:05;;;;;;;3.73;2.87;;;;;;;;;;5054202;28;20627;-65
2023/07/05 02:42:33;;;;;;;4.00;3.37;;;;;;;;;;5056196;28;20630;-65
2023/07/05 02:45:02;;;;;;;4.00;3.60;;;;;;;;;;5056773;28;20615;-64
2023/07/05 02:47:30;;;;;;;3.60;3.20;;;;;;;;;;5057291;28;20660;-64
2023/07/05 02:49:59;;;;;;;3.30;3.00;;;;;;;;;;5076773;28;20618;-63
2023/07/05 02:52:28;;;;;;;6.00;3.27;;;;;;;;;;5077417;28;20605;-64
2023/07/05 02:54:58;;;;;;;3.63;3.33;;;;;;;;;;5077784;28;20585;-63
2023/07/05 02:57:27;;;;;;;7.40;3.40;;;;;;;;;;5077164;28;20603;-65
2023/07/05 02:59:55;;;;;;;4.67;3.30;;;;;;;;;;5076675;28;20635;-63
2023/07/05 03:02:24;;;;;;;3.70;3.40;;;;;;;;;;5075102;28;20662;-67
2023/07/05 03:04:54;;;;;;;5.30;3.70;;;;;;;;;;5075896;28;20634;-63
2023/07/05 03:07:22;;;;;;;5.47;4.20;;;;;;;;;;5075808;28;20655;-63
2023/07/05 03:09:51;;;;;;;4.63;3.77;;;;;;;;;;5075583;28;20692;-63
2023/07/05 03:12:20;;;;;;;4.30;3.27;;;;;;;;;;5075573;28;20604;-66
2023/07/05 03:14:48;;;;;;;8.17;4.20;;;;;;;;;;5068507;28;20652;-65
2023/07/05 03:17:17;;;;;;;9.03;4.10;;;;;;;;;;5075929;28;20605;-64
2023/07/05 03:19:45;;;;;;;5.00;3.43;;;;;;;;;;5076058;28;20626;-65
2023/07/05 03:22:14;;;;;;;4.43;4.13;;;;;;;;;;5073051;28;20621;-65
2023/07/05 03:24:42;;;;;;;7.47;4.53;;;;;;;;;;5075385;28;20635;-64
2023/07/05 03:27:11;;;;;;;4.60;3.87;;;;;;;;;;5070779;28;20662;-64
2023/07/05 03:29:40;;;;;;;11.97;4.20;;;;;;;;;;5067534;28;20654;-65
2023/07/05 03:32:10;;;;;;;4.90;3.73;;;;;;;;;;5056352;28;20623;-66
2023/07/05 03:34:38;;;;;;;4.37;3.97;;;;;;;;;;5062093;28;20639;-63
2023/07/05 03:37:06;;;;;;;7.77;4.57;;;;;;;;;;5073390;28;21081;-65
2023/07/05 03:39:35;;;;;;;7.27;3.97;;;;;;;;;;5073513;28;20662;-63
2023/07/05 03:42:03;;;;;;;5.53;3.73;;;;;;;;;;5075364;28;20634;-64
2023/07/05 03:44:31;;;;;;;4.70;4.13;;;;;;;;;;5076080;28;20639;-64
2023/07/05 03:47:01;;;;;;;4.80;4.40;;;;;;;;;;5076097;28;20681;-64
2023/07/05 03:49:29;;;;;;;6.17;3.60;;;;;;;;;;5060553;28;21106;-67
2023/07/05 03:51:58;;;;;;;4.60;3.90;;;;;;;;;;5055472;28;20659;-65
2023/07/05 03:54:28;;;;;;;5.40;3.83;;;;;;;;;;5055984;28;20619;-65
2023/07/05 03:56:56;;;;;;;10.20;3.87;;;;;;;;;;5054672;28;20631;-63
2023/07/05 03:59:24;;;;;;;3.53;3.17;;;;;;;;;;5055631;28;20643;-66
2023/07/05 04:01:52;;;;;;;4.20;3.80;;;;;;;;;;5071439;28;20643;-63
2023/07/05 04:04:22;;;;;;;7.73;3.77;;;;;;;;;;5070617;28;20644;-65
2023/07/05 04:06:50;;;;;;;8.33;3.67;;;;;;;;;;5054986;28;20668;-63
2023/07/05 04:09:18;;;;;;;4.37;3.40;;;;;;;;;;5055534;28;20670;-64
2023/07/05 04:11:46;;;;;;;3.50;2.93;;;;;;;;;;5054612;28;20703;-64
2023/07/05 04:14:15;;;;;;;5.67;3.80;;;;;;;;;;5059199;28;20652;-67
2023/07/05 04:16:43;;;;;;;3.63;3.33;;;;;;;;;;5064231;28;20631;-66
2023/07/05 04:19:11;;;;;;;4.90;3.60;;;;;;;;;;5075705;28;20654;-64
2023/07/05 04:21:41;;;;;;;3.20;2.90;;;;;;;;;;5075201;28;20615;-64
2023/07/05 04:24:09;;;;;;;3.97;3.63;;;;;;;;;;5057064;28;20647;-65
2023/07/05 04:26:37;;;;;;;3.60;3.03;;;;;;;;;;5055043;28;20691;-64
2023/07/05 04:29:05;;;;;;;3.27;3.00;;;;;;;;;;5054915;28;20619;-66
2023/07/05 04:31:34;;;;;;;7.20;3.30;;;;;;;;;;5054759;28;20639;-63
2023/07/05 04:34:02;;;;;;;3.93;3.10;;;;;;;;;;5055691;28;20609;-63
2023/07/05 04:36:30;;;;;;;12.00;3.00;;;;;;;;;;5055128;28;20619;-63
2023/07/05 04:39:00;;;;;;;4.03;3.33;;;;;;;;;;5061354;28;20620;-64
2023/07/05 04:41:29;;;;;;;7.20;3.23;;;;;;;;;;5075209;28;20651;-65
2023/07/05 04:43:57;;;;;;;3.40;3.13;;;;;;;;;;5075552;28;20640;-64
2023/07/05 04:46:25;;;;;;;3.83;3.40;;;;;;;;;;5069534;28;20633;-67
2023/07/05 04:48:53;;;;;;;3.07;2.87;;;;;;;;;;5075255;28;20685;-65
2023/07/05 04:51:22;;;;;;;8.13;3.90;;;;;;;;;;5074360;28;20707;-66
2023/07/05 04:53:50;;;;;;;3.67;3.37;;;;;;;;;;5076157;28;20619;-63
2023/07/05 04:56:19;;;;;;;12.00;3.50;;;;;;;;;;5075262;28;20624;-64
2023/07/05 04:58:49;;;;;;;6.73;3.17;;;;;;;;;;5076214;28;20593;-65
2023/07/05 05:01:19;;;;;;;3.37;2.83;;;;;;;;;;5073397;28;20641;-65
2023/07/05 05:08:00;;;;;;;5.30;3.10;;;;;;;;;;5065566;28;20622;-63
2023/07/05 05:10:28;;;;;;;2.70;2.50;;;;;;;;;;5064537;28;20644;-65
2023/07/05 05:12:58;;;;;;;4.70;2.93;;;;;;;;;;5062283;28;20590;-63
2023/07/05 05:15:26;;;;;;;5.10;2.83;;;;;;;;;;5064559;28;20651;-65
2023/07/05 05:17:54;;;;;;;3.03;2.70;;;;;;;;;;5064248;28;20633;-67
2023/07/05 05:20:22;;;;;;;3.90;2.83;;;;;;;;;;5063188;28;20605;-64
2023/07/05 05:22:51;;;;;;;2.30;2.10;;;;;;;;;;5061588;28;20681;-66
2023/07/05 05:25:19;;;;;;;4.13;2.27;;;;;;;;;;5063765;28;20645;-66
2023/07/05 05:27:47;;;;;;;2.20;2.10;;;;;;;;;;5063318;28;20653;-67
2023/07/05 05:30:17;;;;;;;3.90;3.57;;;;;;;;;;5053977;28;20619;-65
2023/07/05 05:32:46;;;;;;;2.30;2.20;;;;;;;;;;5064884;28;20657;-65
2023/07/05 05:35:14;;;;;;;3.03;2.53;;;;;;;;;;5074065;28;20658;-66
2023/07/05 05:37:43;;;;;;;2.30;2.20;;;;;;;;;;5073338;28;20627;-63
2023/07/05 05:40:12;;;;;;;2.33;2.13;;;;;;;;;;5074178;28;20650;-69
2023/07/05 05:42:40;;;;;;;7.53;2.43;;;;;;;;;;5072889;28;20647;-66
2023/07/05 05:45:08;;;;;;;5.10;3.50;;;;;;;;;;5073565;28;20651;-65
2023/07/05 05:47:38;;;;;;;2.77;2.33;;;;;;;;;;5074052;28;20645;-66
2023/07/05 05:50:07;;;;;;;2.70;2.50;;;;;;;;;;5074258;28;20602;-63
2023/07/05 05:52:35;;;;;;;2.57;2.37;;;;;;;;;;5074006;28;20631;-67
2023/07/05 05:55:04;;;;;;;3.50;2.90;;;;;;;;;;5074176;28;20606;-64
2023/07/05 05:57:32;;;;;;;3.00;2.30;;;;;;;;;;5074105;28;20587;-65
2023/07/05 06:00:00;;;;;;;5.10;2.40;;;;;;;;;;5068199;28;20648;-62
2023/07/05 06:02:28;;;;;;;2.70;2.50;;;;;;;;;;5063505;28;20625;-63
2023/07/05 06:04:58;;;;;;;2.83;2.63;;;;;;;;;;5071308;28;20675;-65
2023/07/05 06:07:28;;;;;;;3.40;3.07;;;;;;;;;;5069549;28;21113;-67
2023/07/05 06:09:56;;;;;;;3.40;3.17;;;;;;;;;;5074058;28;20671;-65
2023/07/05 06:12:24;;;;;;;2.80;2.60;;;;;;;;;;5073610;28;20658;-68
2023/07/05 06:14:52;;;;;;;3.67;2.40;;;;;;;;;;5075303;28;20673;-68
2023/07/05 06:17:20;;;;;;;3.27;3.03;;;;;;;;;;5078602;28;20639;-66
2023/07/05 06:19:49;;;;;;;3.50;3.20;;;;;;;;;;5078241;28;20886;-67
2023/07/05 06:22:18;;;;;;;5.27;3.33;;;;;;;;;;5077162;28;20645;-64
2023/07/05 06:24:46;;;;;;;3.90;3.43;;;;;;;;;;5079254;28;20659;-64
2023/07/05 06:27:16;;;;;;;7.23;3.70;;;;;;;;;;5075902;28;20618;-65
2023/07/05 06:29:45;;;;;;;4.70;3.87;;;;;;;;;;5073876;28;20659;-66
2023/07/05 06:32:13;;;;;;;3.60;3.30;;;;;;;;;;5074982;28;21422;-66
2023/07/05 06:34:42;;;;;;;4.30;3.90;;;;;;;;;;5074455;28;20630;-61
2023/07/05 06:37:10;;;;;;;3.77;3.20;;;;;;;;;;5075162;28;20664;-65
2023/07/05 06:39:39;;;;;;;4.67;3.80;;;;;;;;;;5076636;28;20668;-64
2023/07/05 06:42:08;;;;;;;3.80;3.50;;;;;;;;;;5075824;28;21174;-65
2023/07/05 06:44:37;;;;;;;3.83;3.53;;;;;;;;;;5074177;28;20639;-62
2023/07/05 06:47:05;;;;;;;3.87;3.57;;;;;;;;;;5073960;28;20658;-66
2023/07/05 06:49:33;;;;;;;5.53;3.60;;;;;;;;;;5075475;28;20701;-64
2023/07/05 06:52:02;;;;;;;3.80;3.50;;;;;;;;;;5076383;28;20650;-67
2023/07/05 06:54:30;;;;;;;5.93;3.70;;;;;;;;;;5077032;28;20600;-63
2023/07/05 06:57:00;;;;;;;4.23;3.83;;;;;;;;;;5074980;28;20642;-65
2023/07/05 06:59:28;;;;;;;4.60;4.17;;;;;;;;;;5075881;28;20597;-63
2023/07/05 07:06:04;;;;;;;6.27;5.50;;;;;;;;;;5067710;28;20537;-67
2023/07/05 07:08:35;;;;;;;5.10;4.17;;;;;;;;;;5073239;28;20674;-63
2023/07/05 07:11:03;;;;;;;4.63;3.73;;;;;;;;;;5067305;28;20721;-66
2023/07/05 07:13:34;;;;;;;5.63;4.30;;;;;;;;;;5071616;28;20712;-63
2023/07/05 07:16:03;;;;;;;5.37;3.87;;;;;;;;;;5073499;28;20627;-65
2023/07/05 07:18:32;;;;;;;4.80;3.97;;;;;;;;;;5071376;28;20627;-62
2023/07/05 07:21:01;;;;;;;4.70;4.30;;;;;;;;;;5073937;28;20864;-62
2023/07/05 07:23:30;;;;;;;4.90;4.50;;;;;;;;;;5074050;28;20643;-63
2023/07/05 07:25:59;;;;;;;4.60;4.20;;;;;;;;;;5074417;28;20747;-64
2023/07/05 07:28:27;;;;;;;5.47;4.97;;;;;;;;;;5073484;28;20678;-64
2023/07/05 07:30:57;;;;;;;5.93;5.20;;;;;;;;;;5074133;28;20639;-64
2023/07/05 07:33:25;;;;;;;5.43;4.93;;;;;;;;;;5075218;28;20634;-65
2023/07/05 07:35:53;;;;;;;5.73;5.20;;;;;;;;;;5074278;28;20625;-64
2023/07/05 07:38:21;;;;;;;4.27;3.90;;;;;;;;;;5074685;28;20718;-65
2023/07/05 07:40:50;;;;;;;5.20;4.73;;;;;;;;;;5074256;28;20657;-64
2023/07/05 07:43:18;;;;;;;5.07;4.10;;;;;;;;;;5073448;28;20625;-65
2023/07/05 07:45:46;;;;;;;5.90;5.30;;;;;;;;;;5074686;28;20631;-66
2023/07/05 07:48:16;;;;;;;4.87;4.47;;;;;;;;;;5075187;28;20637;-67
2023/07/05 07:50:49;;;;;;;4.70;4.30;;;;;;;;;;5075621;28;20638;-66
2023/07/05 07:53:17;;;;;;;5.33;4.30;;;;;;;;;;5071720;28;20638;-63
2023/07/05 07:55:45;;;;;;;5.73;5.10;;;;;;;;;;5074450;28;20634;-68
2023/07/05 07:58:13;;;;;;;5.00;4.60;;;;;;;;;;5075438;28;20663;-66
2023/07/05 08:00:42;;;;;;;5.10;4.60;;;;;;;;;;5072859;28;20627;-67
2023/07/05 08:03:10;;;;;;;5.47;4.97;;;;;;;;;;5069428;28;20651;-66
2023/07/05 08:05:40;;;;;;;5.20;4.70;;;;;;;;;;5073164;28;20658;-64
2023/07/05 08:08:08;;;;;;;4.83;4.43;;;;;;;;;;5075289;28;20643;-63
2023/07/05 08:10:36;;;;;;;6.50;5.43;;;;;;;;;;5073560;28;20641;-67
2023/07/05 08:13:04;;;;;;;5.00;4.60;;;;;;;;;;5075241;28;20624;-68
2023/07/05 08:15:33;;;;;;;6.17;5.30;;;;;;;;;;5074358;28;20651;-63
2023/07/05 08:18:01;;;;;;;6.30;4.80;;;;;;;;;;5074914;28;20618;-64
2023/07/05 08:20:29;;;;;;;5.00;4.67;;;;;;;;;;5074260;28;20651;-63
2023/07/05 08:22:59;;;;;;;5.13;4.83;;;;;;;;;;5072943;28;20627;-64
2023/07/05 08:25:27;;;;;;;6.33;4.90;;;;;;;;;;5074011;28;20628;-64
2023/07/05 08:27:55;;;;;;;7.57;4.83;;;;;;;;;;5075110;28;20634;-66
2023/07/05 08:30:23;;;;;;;4.53;4.13;;;;;;;;;;5075372;28;20690;-64
2023/07/05 08:32:51;;;;;;;4.53;4.20;;;;;;;;;;5075471;28;20643;-65
2023/07/05 08:35:20;;;;;;;5.63;5.10;;;;;;;;;;5073945;28;20651;-64
2023/07/05 08:37:48;;;;;;;5.20;4.70;;;;;;;;;;5075250;28;20626;-65
2023/07/05 08:40:19;;;;;;;4.20;3.90;;;;;;;;;;5074588;28;20631;-63
2023/07/05 08:42:52;;;;;;;5.27;4.80;;;;;;;;;;5074697;28;20630;-66
2023/07/05 08:45:23;;;;;;;4.40;4.20;;;;;;;;;;5075556;28;20589;-63
2023/07/05 08:47:52;;;;;;;4.77;4.40;;;;;;;;;;5076065;28;20606;-64
2023/07/05 08:54:32;;;;;;;5.03;4.70;;;;;;;;;;5058449;28;20574;-64
2023/07/05 08:57:04;;;;;;;4.77;4.20;;;;;;;;;;5056050;28;20672;-63
2023/07/05 08:59:36;;;;;;;4.20;4.00;;;;;;;;;;5072946;28;20627;-64
2023/07/05 09:02:06;;;;;;;4.73;4.43;;;;;;;;;;5073500;28;21438;-67
2023/07/05 09:04:34;;;;;;;5.47;5.03;;;;;;;;;;5074806;28;20638;-68
2023/07/05 09:07:07;;;;;;;8.00;4.60;;;;;;;;;;5072212;28;20647;-67
2023/07/05 09:09:44;;;;;;;4.50;4.20;;;;;;;;;;5071964;28;20643;-64
2023/07/05 09:12:22;;;;;;;4.67;4.37;;;;;;;;;;5066989;28;20690;-67
2023/07/05 09:14:59;;;;;;;4.53;4.23;;;;;;;;;;5056261;28;20595;-65
2023/07/05 09:17:33;;;;;;;4.80;4.40;;;;;;;;;;5067968;28;21111;-65
2023/07/05 09:20:05;;;;;;;4.87;4.47;;;;;;;;;;5071859;28;20621;-66
2023/07/05 09:22:36;;;;;;;5.60;3.90;;;;;;;;;;5072645;28;20626;-68
2023/07/05 09:25:05;;;;;;;6.33;4.30;;;;;;;;;;5073071;28;20631;-67
2023/07/05 09:27:37;;;;;;;4.27;4.03;;;;;;;;;;5072967;28;20627;-69
2023/07/05 09:30:08;;;;;;;4.40;4.10;;;;;;;;;;5073484;28;20643;-67
2023/07/05 09:32:37;;;;;;;5.87;5.40;;;;;;;;;;5064645;28;20640;-65
2023/07/05 09:35:13;;;;;;;11.53;4.50;;;;;;;;;;5070554;28;20638;-65
2023/07/05 09:37:43;;;;;;;4.30;4.00;;;;;;;;;;5070549;28;20631;-68
2023/07/05 09:40:15;;;;;;;4.50;4.20;;;;;;;;;;5072133;28;20634;-69
2023/07/05 09:42:47;;;;;;;5.43;4.07;;;;;;;;;;5071659;28;20627;-68
2023/07/05 09:45:16;;;;;;;4.90;4.37;;;;;;;;;;5072051;28;20634;-68
2023/07/05 09:47:45;;;;;;;4.50;4.20;;;;;;;;;;5070394;28;20677;-69
2023/07/05 09:50:16;;;;;;;4.57;3.80;;;;;;;;;;5071521;28;20667;-64
2023/07/05 09:52:46;;;;;;;4.83;4.43;;;;;;;;;;5063938;28;20627;-66
2023/07/05 09:55:15;;;;;;;4.30;4.10;;;;;;;;;;5071994;28;20638;-64
2023/07/05 09:57:45;;;;;;;4.30;4.00;;;;;;;;;;5072496;28;20699;-67
2023/07/05 10:00:24;;;;;;;5.10;4.60;;;;;;;;;;5071580;28;20636;-64
2023/07/05 10:02:54;;;;;;;4.30;4.10;;;;;;;;;;5067097;28;20645;-67
2023/07/05 10:05:26;;;;;;;4.70;4.50;;;;;;;;;;5071448;28;20637;-66
2023/07/05 10:07:56;;;;;;;4.90;4.50;;;;;;;;;;5071162;28;20595;-67
2023/07/05 10:10:29;;;;;;;4.77;4.50;;;;;;;;;;5071372;28;20661;-66
2023/07/05 10:13:04;;;;;;;4.90;4.50;;;;;;;;;;5071670;28;20615;-65
2023/07/05 10:15:33;;;;;;;4.70;4.40;;;;;;;;;;5071454;28;20645;-66
2023/07/05 10:18:01;;;;;;;8.63;5.40;;;;;;;;;;5071454;28;20639;-64
2023/07/05 10:20:32;;;;;;;4.53;4.33;;;;;;;;;;5068866;28;20658;-65
2023/07/05 10:23:02;;;;;;;5.53;4.90;;;;;;;;;;5064960;28;20677;-64
2023/07/05 10:25:33;;;;;;;5.70;4.80;;;;;;;;;;5072573;28;20642;-64
2023/07/05 10:28:04;;;;;;;5.10;4.70;;;;;;;;;;5072272;28;20637;-64
2023/07/05 10:30:33;;;;;;;4.63;4.20;;;;;;;;;;5054959;28;20654;-64
2023/07/05 10:33:16;;;;;;;4.63;4.33;;;;;;;;;;5070933;28;20667;-64
2023/07/05 10:35:48;;;;;;;4.43;4.13;;;;;;;;;;5072587;28;20631;-66
2023/07/05 10:38:26;;;;;;;7.57;4.63;;;;;;;;;;5073007;28;20598;-67
2023/07/05 10:40:56;;;;;;;6.10;4.57;;;;;;;;;;5071741;28;20619;-67
2023/07/05 10:43:27;;;;;;;4.70;4.40;;;;;;;;;;5072701;28;20643;-70
2023/07/05 10:45:55;;;;;;;5.13;4.83;;;;;;;;;;5071407;28;20614;-64
2023/07/05 10:48:26;;;;;;;4.97;4.67;;;;;;;;;;5072164;28;20682;-64
2023/07/05 10:50:54;;;;;;;4.80;4.50;;;;;;;;;;5071423;28;20663;-68
2023/07/05 10:53:25;;;;;;;5.50;4.90;;;;;;;;;;5071913;28;20635;-66
2023/07/05 10:55:59;;;;;;;8.20;4.67;;;;;;;;;;5072640;28;20595;-67
2023/07/05 10:58:36;;;;;;;4.67;4.37;;;;;;;;;;5071866;28;20641;-67
2023/07/05 11:01:06;;;;;;;4.83;4.40;;;;;;;;;;5071327;28;21232;-66
2023/07/05 11:03:38;;;;;;;4.83;4.53;;;;;;;;;;5068954;28;20618;-65
2023/07/05 11:06:07;;;;;;;4.30;4.03;;;;;;;;;;5072646;28;20649;-66
2023/07/05 11:08:39;;;;;;;5.27;4.97;;;;;;;;;;5077375;28;20643;-63
2023/07/05 11:11:15;;;;;;;4.63;4.33;;;;;;;;;;5075030;28;20682;-65
2023/07/05 11:13:45;;;;;;;6.20;4.80;;;;;;;;;;5074988;28;20634;-65
2023/07/05 11:16:17;;;;;;;4.43;4.23;;;;;;;;;;5073436;28;21379;-64
2023/07/05 11:18:46;;;;;;;4.57;4.37;;;;;;;;;;5075460;28;20626;-63
2023/07/05 11:21:34;;;;;;;5.23;4.80;;;;;;;;;;5070943;28;20638;-65
2023/07/05 11:24:04;;;;;;;4.87;4.63;;;;;;;;;;5075345;28;20631;-64
2023/07/05 11:26:34;;;;;;;4.70;4.40;;;;;;;;;;5076244;28;20649;-65
2023/07/05 11:29:24;;;;;;;5.30;4.43;;;;;;;;;;5077140;28;20777;-63
2023/07/05 11:32:00;;;;;;;5.23;4.93;;;;;;;;;;5082617;28;20629;-63
2023/07/05 11:34:35;;;;;;;5.00;4.70;;;;;;;;;;5075894;28;20614;-63
2023/07/05 11:37:22;;;;;;;4.93;4.60;;;;;;;;;;5075104;28;20633;-64
2023/07/05 11:39:51;;;;;;;5.00;4.60;;;;;;;;;;5070474;28;20587;-63
2023/07/05 11:42:38;;;;;;;5.73;5.27;;;;;;;;;;5074780;28;20640;-64
2023/07/05 11:45:23;;;;;;;4.70;4.50;;;;;;;;;;5075249;28;20649;-64
2023/07/05 11:47:51;;;;;;;5.17;4.87;;;;;;;;;;5074993;28;20626;-65
2023/07/05 11:50:29;;;;;;;5.40;5.10;;;;;;;;;;5075228;28;20686;-67
2023/07/05 11:53:00;;;;;;;5.60;5.20;;;;;;;;;;5074065;28;20626;-65
2023/07/05 11:55:31;;;;;;;5.97;5.47;;;;;;;;;;5073829;28;20638;-64
2023/07/05 11:58:02;;;;;;;5.97;5.57;;;;;;;;;;5074597;28;20622;-63
2023/07/05 12:00:34;;;;;;;5.30;5.10;;;;;;;;;;5079180;28;20932;-66
2023/07/05 12:03:04;;;;;;;5.43;5.13;;;;;;;;;;5067087;28;20638;-64
2023/07/05 12:05:34;;;;;;;5.80;5.33;;;;;;;;;;5072505;28;20651;-66
2023/07/05 12:08:06;;;;;;;9.63;5.57;;;;;;;;;;5075098;28;20635;-64
2023/07/05 12:10:35;;;;;;;5.20;5.00;;;;;;;;;;5072448;28;20690;-65
2023/07/05 12:13:06;;;;;;;5.33;4.83;;;;;;;;;;5073787;28;20639;-65
2023/07/05 12:15:37;;;;;;;5.73;5.43;;;;;;;;;;5074400;28;20634;-65
2023/07/05 12:18:06;;;;;;;5.10;4.80;;;;;;;;;;5071081;28;20652;-65
2023/07/05 12:20:36;;;;;;;5.87;5.37;;;;;;;;;;5072915;28;20665;-66
2023/07/05 12:23:04;;;;;;;5.23;5.03;;;;;;;;;;5074303;28;20647;-64
2023/07/05 12:25:33;;;;;;;4.70;4.40;;;;;;;;;;5074470;28;20665;-63
2023/07/05 12:28:03;;;;;;;5.57;5.07;;;;;;;;;;5074087;28;20642;-64
2023/07/05 12:30:39;;;;;;;5.57;5.27;;;;;;;;;;5074115;28;20670;-67
2023/07/05 12:33:21;;;;;;;7.50;6.20;;;;;;;;;;5074079;28;20637;-65
2023/07/05 12:36:04;;;;;;;6.40;5.80;;;;;;;;;;5070663;28;20641;-64
2023/07/05 12:38:33;;;;;;;5.50;5.10;;;;;;;;;;5073507;28;20637;-63
2023/07/05 12:41:02;;;;;;;5.60;5.10;;;;;;;;;;5063940;28;20667;-63
2023/07/05 12:43:32;;;;;;;5.53;4.97;;;;;;;;;;5073369;28;20658;-66
2023/07/05 12:46:07;;;;;;;5.43;5.00;;;;;;;;;;5075342;28;20611;-64
2023/07/05 12:48:38;;;;;;;5.93;5.47;;;;;;;;;;5074333;28;20631;-64
2023/07/05 12:51:07;;;;;;;7.43;5.07;;;;;;;;;;5074598;28;20752;-65
2023/07/05 12:53:36;;;;;;;5.30;5.00;;;;;;;;;;5073660;28;20649;-63
2023/07/05 12:56:06;;;;;;;6.07;5.03;;;;;;;;;;5080973;28;20641;-67
2023/07/05 12:58:35;;;;;;;5.20;4.80;;;;;;;;;;5090144;28;20634;-64
2023/07/05 13:01:04;;;;;;;7.00;5.30;;;;;;;;;;5074240;28;20643;-64
2023/07/05 13:03:33;;;;;;;4.80;4.60;;;;;;;;;;5072464;28;20643;-67
2023/07/05 13:06:03;;;;;;;5.10;4.90;;;;;;;;;;5074389;28;20630;-64
2023/07/05 13:08:31;;;;;;;9.13;5.00;;;;;;;;;;5073924;28;20643;-66
2023/07/05 13:10:59;;;;;;;5.20;4.90;;;;;;;;;;5070075;28;20699;-65
2023/07/05 13:13:32;;;;;;;4.87;4.57;;;;;;;;;;5071742;28;20619;-65
2023/07/05 13:16:15;;;;;;;5.50;5.10;;;;;;;;;;5074180;28;20607;-64
2023/07/05 13:18:55;;;;;;;5.60;5.10;;;;;;;;;;5072074;28;20626;-65
2023/07/05 13:21:25;;;;;;;5.27;4.87;;;;;;;;;;5073813;28;20599;-63
2023/07/05 13:23:53;;;;;;;6.10;5.50;;;;;;;;;;5073290;28;21231;-65
2023/07/05 13:26:30;;;;;;;6.57;5.70;;;;;;;;;;5073526;28;20634;-66
2023/07/05 13:28:59;;;;;;;5.47;5.07;;;;;;;;;;5069951;28;20626;-66
2023/07/05 13:31:28;;;;;;;11.93;4.90;;;;;;;;;;5073288;28;20675;-66
2023/07/05 13:33:57;;;;;;;5.50;5.10;;;;;;;;;;5072847;28;20654;-67
2023/07/05 13:36:27;;;;;;;5.43;5.23;;;;;;;;;;5072763;28;20643;-65
2023/07/05 13:38:55;;;;;;;5.60;5.20;;;;;;;;;;5054143;28;20647;-66
2023/07/05 13:41:25;;;;;;;5.67;5.20;;;;;;;;;;5054178;28;20636;-67
2023/07/05 13:43:54;;;;;;;5.17;4.80;;;;;;;;;;5053533;28;20615;-64
2023/07/05 13:46:22;;;;;;;5.97;5.13;;;;;;;;;;5071722;28;20631;-66
2023/07/05 13:48:51;;;;;;;5.27;5.07;;;;;;;;;;5073944;28;20634;-64
2023/07/05 13:51:24;;;;;;;5.77;5.40;;;;;;;;;;5074000;28;20654;-64
2023/07/05 13:53:54;;;;;;;5.83;5.40;;;;;;;;;;5059783;28;20636;-65
2023/07/05 13:56:22;;;;;;;5.57;5.20;;;;;;;;;;5061651;28;20647;-64
2023/07/05 13:58:50;;;;;;;5.50;5.10;;;;;;;;;;5072633;28;20686;-65
2023/07/05 14:05:28;;;;;;;5.03;4.83;;;;;;;;;;5064390;28;20626;-67
2023/07/05 14:07:57;;;;;;;5.30;4.90;;;;;;;;;;5072286;28;20666;-65
2023/07/05 14:10:28;;;;;;;5.40;5.10;;;;;;;;;;5072760;28;20682;-66
2023/07/05 14:12:56;;;;;;;6.50;5.17;;;;;;;;;;5062900;28;20670;-64
2023/07/05 14:15:27;;;;;;;5.90;5.50;;;;;;;;;;5073056;28;20634;-66
2023/07/05 14:17:58;;;;;;;5.77;5.37;;;;;;;;;;5073713;28;20599;-64
2023/07/05 14:20:29;;;;;;;5.70;5.40;;;;;;;;;;5073502;28;20607;-65
2023/07/05 14:22:59;;;;;;;5.40;5.00;;;;;;;;;;5072581;28;20619;-64
2023/07/05 14:25:30;;;;;;;4.97;4.77;;;;;;;;;;5073489;28;20630;-66
2023/07/05 14:27:58;;;;;;;5.47;5.20;;;;;;;;;;5074192;28;20598;-66
2023/07/05 14:30:26;;;;;;;5.37;4.97;;;;;;;;;;5074375;28;20678;-64
2023/07/05 14:32:55;;;;;;;5.40;5.10;;;;;;;;;;5073460;28;20679;-63
2023/07/05 14:35:23;;;;;;;6.63;5.13;;;;;;;;;;5067115;28;20700;-64
2023/07/05 14:37:52;;;;;;;5.10;4.90;;;;;;;;;;5058725;28;21194;-63
2023/07/05 14:40:24;;;;;;;5.23;4.93;;;;;;;;;;5058075;28;20709;-63
2023/07/05 14:42:54;;;;;;;5.13;4.90;;;;;;;;;;5059691;28;20648;-64
2023/07/05 14:45:24;;;;;;;5.37;5.07;;;;;;;;;;5058567;28;20701;-63
2023/07/05 14:47:52;;;;;;;6.00;4.90;;;;;;;;;;5059222;28;20768;-63
2023/07/05 14:50:21;;;;;;;5.63;5.20;;;;;;;;;;5058250;28;20611;-64
2023/07/05 14:52:49;;;;;;;5.70;5.30;;;;;;;;;;5058506;28;21006;-64
2023/07/05 14:55:19;;;;;;;5.97;5.47;;;;;;;;;;5058759;28;20682;-64
2023/07/05 14:57:47;;;;;;;5.37;5.07;;;;;;;;;;5058368;28;21266;-64
2023/07/05 15:00:17;;;;;;;5.70;5.40;;;;;;;;;;5058533;28;21141;-63
2023/07/05 15:02:48;;;;;;;6.13;5.57;;;;;;;;;;5058955;28;20590;-64
2023/07/05 15:05:17;;;;;;;5.17;4.83;;;;;;;;;;5058516;28;20689;-64
2023/07/05 15:07:46;;;;;;;6.00;4.97;;;;;;;;;;5058103;28;20714;-63
2023/07/05 15:10:15;;;;;;;5.57;5.10;;;;;;;;;;5055586;28;20712;-64
2023/07/05 15:12:45;;;;;;;5.60;5.10;;;;;;;;;;5051496;28;20765;-64
2023/07/05 15:15:17;;;;;;;5.30;4.77;;;;;;;;;;5048957;28;20725;-64
2023/07/05 15:17:46;;;;;;;5.80;5.27;;;;;;;;;;5037560;28;20584;-64